createdAt,value
2022-09-05T00:00:04.370Z,0.8
2022-09-05T00:01:14.013Z,0.7
2022-09-05T00:02:22.742Z,0.7
2022-09-05T00:03:31.665Z,0.7
2022-09-05T00:04:40.995Z,0.5
2022-09-05T00:06:02.064Z,0.7
2022-09-05T00:07:01.279Z,0.6
2022-09-05T00:08:09.919Z,0.5
2022-09-05T00:09:19.563Z,0.7
2022-09-05T00:10:35.905Z,0.5
2022-09-05T00:11:43.805Z,0.6
2022-09-05T00:12:48.573Z,0.6
2022-09-05T00:13:58.266Z,0.5
2022-09-05T00:15:15.633Z,0.6
2022-09-05T00:16:18.644Z,0.5
2022-09-05T00:17:30.755Z,0.7
2022-09-05T00:21:21.412Z,0.9
2022-09-05T00:23:48.507Z,1.1
2022-09-05T00:23:50.520Z,0.5
2022-09-05T00:24:23.815Z,0.8
2022-09-05T00:24:33.633Z,0.6
2022-09-05T00:24:49.953Z,1
2022-09-05T00:25:41.989Z,0.7
2022-09-05T00:26:51.624Z,0.7
2022-09-05T00:28:00.264Z,0.6
2022-09-05T00:29:11.007Z,0.8
2022-09-05T00:31:08.439Z,0.8
2022-09-05T00:31:52.353Z,0.7
2022-09-05T00:32:43.048Z,0.5
2022-09-05T00:33:50.638Z,0.5
2022-09-05T00:35:00.317Z,0.5
2022-09-05T00:36:09.977Z,0.6
2022-09-05T00:37:18.605Z,0.8
2022-09-05T00:38:30.514Z,0.9
2022-09-05T00:39:36.960Z,0.7
2022-09-05T00:40:45.674Z,0.5
2022-09-05T00:41:55.329Z,0.5
2022-09-05T00:43:03.047Z,0.7
2022-09-05T00:44:12.725Z,0.8
2022-09-05T00:45:22.373Z,0.9
2022-09-05T00:46:32.271Z,0.5
2022-09-05T00:47:41.779Z,0.7
2022-09-05T00:48:50.416Z,0.7
2022-09-05T00:49:59.083Z,0.9
2022-09-05T00:51:08.744Z,0.8
2022-09-05T00:52:17.512Z,0.7
2022-09-05T00:53:27.178Z,0.6
2022-09-05T00:54:40.742Z,0.6
2022-09-05T00:55:44.485Z,0.9
2022-09-05T00:56:54.155Z,0.6
2022-09-05T00:58:02.924Z,0.8
2022-09-05T00:59:11.595Z,0.6
2022-09-05T01:00:21.236Z,0.7
2022-09-05T01:01:29.064Z,0.6
2022-09-05T01:02:49.796Z,0.7
2022-09-05T01:03:48.327Z,0.6
2022-09-05T01:04:57.003Z,0.7
2022-09-05T01:06:06.668Z,0.5
2022-09-05T01:07:15.377Z,0.5
2022-09-05T01:08:26.037Z,0.7
2022-09-05T01:09:35.738Z,0.8
2022-09-05T01:10:44.379Z,0.6
2022-09-05T01:11:54.053Z,0.7
2022-09-05T01:13:02.704Z,0.9
2022-09-05T01:14:12.838Z,0.7
2022-09-05T01:15:21.014Z,0.9
2022-09-05T01:16:28.808Z,0.8
2022-09-05T01:17:37.432Z,0.9
2022-09-05T01:18:47.095Z,0.9
2022-09-05T01:19:55.750Z,0.7
2022-09-05T01:21:05.424Z,0.6
2022-09-05T01:22:14.079Z,0.5
2022-09-05T01:23:23.855Z,0.4
2022-09-05T01:24:34.531Z,0.6
2022-09-05T01:25:47.016Z,0.5
2022-09-05T01:26:53.852Z,0.8
2022-09-05T01:29:14.677Z,0.4
2022-09-05T01:29:19.300Z,0.6
2022-09-05T01:30:29.702Z,0.6
2022-09-05T01:31:34.475Z,0.5
2022-09-05T01:32:43.124Z,0.7
2022-09-05T01:33:52.799Z,0.4
2022-09-05T01:35:01.458Z,0.5
2022-09-05T01:36:11.115Z,0.6
2022-09-05T01:37:25.074Z,0.7
2022-09-05T01:38:29.423Z,0.8
2022-09-05T01:40:12.703Z,0.9
2022-09-05T01:40:53.698Z,0.8
2022-09-05T01:41:59.343Z,0.8
2022-09-05T01:43:09.018Z,0.7
2022-09-05T01:44:16.737Z,0.6
2022-09-05T01:45:29.071Z,0.7
2022-09-05T01:46:37.196Z,0.7
2022-09-05T01:47:44.801Z,0.7
2022-09-05T01:48:54.456Z,0.8
2022-09-05T01:50:04.108Z,0.8
2022-09-05T01:51:28.517Z,0.9
2022-09-05T01:52:25.424Z,0.5
2022-09-05T01:53:33.114Z,0.8
2022-09-05T01:54:42.834Z,0.7
2022-09-05T01:56:02.588Z,0.8
2022-09-05T01:57:02.136Z,0.8
2022-09-05T01:58:11.779Z,0.8
2022-09-05T01:59:19.433Z,0.7
2022-09-05T02:00:29.093Z,0.8
2022-09-05T02:01:38.803Z,0.8
2022-09-05T02:02:48.912Z,0.6
2022-09-05T02:03:59.127Z,0.8
2022-09-05T02:05:07.759Z,0.7
2022-09-05T02:06:16.420Z,0.8
2022-09-05T02:07:30.751Z,0.8
2022-09-05T02:08:35.871Z,0.6
2022-09-05T02:09:45.526Z,0.8
2022-09-05T02:10:54.312Z,0.8
2022-09-05T02:12:03.063Z,0.7
2022-09-05T02:13:12.785Z,0.7
2022-09-05T02:14:24.445Z,0.6
2022-09-05T02:15:32.127Z,0.8
2022-09-05T02:16:41.739Z,0.4
2022-09-05T02:17:51.780Z,0.7
2022-09-05T02:19:01.314Z,0.7
2022-09-05T02:20:09.721Z,0.8
2022-09-05T02:21:17.420Z,1.1
2022-09-05T02:22:27.107Z,0.8
2022-09-05T02:23:40.600Z,0.8
2022-09-05T02:24:46.511Z,0.6
2022-09-05T02:26:00.824Z,0.7
2022-09-05T02:27:06.821Z,0.8
2022-09-05T02:28:16.506Z,0.8
2022-09-05T02:29:28.749Z,0.7
2022-09-05T02:30:35.874Z,0.8
2022-09-05T02:31:45.529Z,0.9
2022-09-05T02:32:54.158Z,0.5
2022-09-05T02:34:02.854Z,0.9
2022-09-05T02:35:13.569Z,0.7
2022-09-05T02:36:23.231Z,0.6
2022-09-05T02:38:00.478Z,0.8
2022-09-05T02:40:34.664Z,0.7
2022-09-05T02:40:42.784Z,0.8
2022-09-05T02:45:05.347Z,1
2022-09-05T02:45:05.701Z,1.4
2022-09-05T02:45:05.768Z,0.9
2022-09-05T02:45:15.770Z,0.6
2022-09-05T02:45:45.603Z,0.6
2022-09-05T02:46:55.212Z,0.6
2022-09-05T02:48:04.937Z,0.6
2022-09-05T02:49:58.625Z,0.6
2022-09-05T02:53:45.564Z,0.6
2022-09-05T02:54:14.287Z,0.7
2022-09-05T02:55:50.704Z,0.5
2022-09-05T02:57:23.660Z,0.5
2022-09-05T02:57:31.333Z,0.5
2022-09-05T02:57:32.569Z,0.4
2022-09-05T02:57:47.590Z,0.5
2022-09-05T02:59:06.010Z,0.7
2022-09-05T02:59:49.361Z,0.9
2022-09-05T03:00:57.061Z,1
2022-09-05T03:02:25.150Z,1.5
2022-09-05T03:03:17.316Z,1
2022-09-05T03:04:24.965Z,0.6
2022-09-05T03:05:34.679Z,0.6
2022-09-05T03:06:43.327Z,0.5
2022-09-05T03:07:52.031Z,0.6
2022-09-05T03:09:08.121Z,0.6
2022-09-05T03:10:10.338Z,0.6
2022-09-05T03:11:19.022Z,0.6
2022-09-05T03:12:29.897Z,0.6
2022-09-05T03:13:37.346Z,0.6
2022-09-05T03:14:48.022Z,0.4
2022-09-05T03:15:57.007Z,0.6
2022-09-05T03:17:05.416Z,0.5
2022-09-05T03:18:20.463Z,0.8
2022-09-05T03:19:23.713Z,0.7
2022-09-05T03:20:32.410Z,0.7
2022-09-05T03:21:41.088Z,1
2022-09-05T03:22:48.799Z,0.9
2022-09-05T03:23:58.486Z,0.9
2022-09-05T03:25:07.175Z,1.1
2022-09-05T03:26:14.851Z,1.2
2022-09-05T03:27:24.989Z,1.1
2022-09-05T03:28:35.207Z,1.3
2022-09-05T03:29:43.897Z,1.1
2022-09-05T03:30:53.625Z,1.3
2022-09-05T03:32:01.211Z,1.1
2022-09-05T03:33:10.890Z,1.1
2022-09-05T03:34:19.607Z,1.6
2022-09-05T03:35:27.278Z,1.5
2022-09-05T03:36:36.975Z,1.5
2022-09-05T03:37:44.629Z,1.1
2022-09-05T03:38:53.269Z,1.3
2022-09-05T03:40:15.579Z,1.3
2022-09-05T03:41:11.565Z,1.1
2022-09-05T03:42:21.227Z,1.4
2022-09-05T03:43:29.983Z,1.2
2022-09-05T03:44:38.715Z,1.5
2022-09-05T03:45:47.422Z,1.4
2022-09-05T03:46:56.075Z,1.4
2022-09-05T03:48:23.193Z,1.4
2022-09-05T03:49:25.886Z,1.2
2022-09-05T03:51:56.862Z,1.1
2022-09-05T03:55:38.782Z,1.1
2022-09-05T03:57:01.844Z,1
2022-09-05T03:57:09.422Z,1
2022-09-05T03:57:09.465Z,1.1
2022-09-05T03:57:21.691Z,0.9
2022-09-05T03:57:41.309Z,0.8
2022-09-05T03:58:56.200Z,1.3
2022-09-05T03:59:51.075Z,1.1
2022-09-05T04:01:10.964Z,1.4
2022-09-05T04:02:47.827Z,1.2
2022-09-05T04:07:42.806Z,1.4
2022-09-05T04:08:12.199Z,0.8
2022-09-05T04:08:12.217Z,1
2022-09-05T04:08:12.304Z,1
2022-09-05T04:08:13.002Z,1.3
2022-09-05T04:09:26.613Z,0.8
2022-09-05T04:10:26.138Z,0.8
2022-09-05T04:11:34.721Z,0.8
2022-09-05T04:12:44.397Z,0.7
2022-09-05T04:13:53.100Z,0.7
2022-09-05T04:15:01.749Z,0.8
2022-09-05T04:16:11.451Z,0.8
2022-09-05T04:17:20.075Z,0.7
2022-09-05T04:18:33.602Z,0.8
2022-09-05T04:19:39.362Z,0.8
2022-09-05T04:20:48.032Z,0.8
2022-09-05T04:21:57.695Z,0.6
2022-09-05T04:23:06.394Z,0.8
2022-09-05T04:24:15.085Z,0.6
2022-09-05T04:25:24.753Z,0.8
2022-09-05T04:26:32.539Z,0.8
2022-09-05T04:27:42.250Z,0.6
2022-09-05T04:28:53.485Z,0.7
2022-09-05T04:30:01.590Z,0.5
2022-09-05T04:31:11.329Z,0.6
2022-09-05T04:32:21.013Z,0.6
2022-09-05T04:33:33.522Z,0.7
2022-09-05T04:34:41.319Z,0.6
2022-09-05T04:35:51.000Z,0.6
2022-09-05T04:36:59.665Z,0.9
2022-09-05T04:38:09.517Z,0.6
2022-09-05T04:39:17.284Z,0.4
2022-09-05T04:40:30.921Z,0.5
2022-09-05T04:41:39.651Z,0.4
2022-09-05T04:42:45.341Z,0.6
2022-09-05T04:43:55.057Z,0.9
2022-09-05T04:45:03.733Z,0.8
2022-09-05T04:46:16.960Z,0.8
2022-09-05T04:47:23.042Z,0.8
2022-09-05T04:48:31.695Z,0.8
2022-09-05T04:49:41.425Z,0.9
2022-09-05T04:50:50.131Z,0.6
2022-09-05T04:52:00.058Z,0.5
2022-09-05T04:53:09.460Z,0.7
2022-09-05T04:54:18.184Z,0.8
2022-09-05T04:55:26.864Z,0.7
2022-09-05T04:56:36.595Z,0.6
2022-09-05T04:57:45.256Z,0.5
2022-09-05T04:59:18.762Z,0.5
2022-09-05T05:01:11.584Z,0.6
2022-09-05T05:05:09.013Z,0.7
2022-09-05T05:05:58.996Z,0.8
2022-09-05T05:06:06.798Z,0.6
2022-09-05T05:06:07.999Z,0.6
2022-09-05T05:06:28.726Z,0.6
2022-09-05T05:07:09.516Z,0.8
2022-09-05T05:08:27.978Z,0.5
2022-09-05T05:09:28.823Z,0.8
2022-09-05T05:11:02.484Z,0.9
2022-09-05T05:14:09.294Z,0.8
2022-09-05T05:15:41.941Z,0.7
2022-09-05T05:18:04.346Z,0.8
2022-09-05T05:18:04.904Z,0.7
2022-09-05T05:18:05.673Z,0.7
2022-09-05T05:18:06.055Z,0.9
2022-09-05T05:19:01.377Z,0.7
2022-09-05T05:20:40.950Z,0.8
2022-09-05T05:21:14.487Z,0.9
2022-09-05T05:22:23.153Z,1.1
2022-09-05T05:23:30.817Z,1.1
2022-09-05T05:24:40.512Z,1.7
2022-09-05T05:25:50.154Z,2
2022-09-05T05:26:59.822Z,1.2
2022-09-05T05:28:10.273Z,0.9
2022-09-05T05:29:20.161Z,0.8
2022-09-05T05:30:29.911Z,1.1
2022-09-05T05:31:38.650Z,1.2
2022-09-05T05:32:47.191Z,1.5
2022-09-05T05:33:56.852Z,1.3
2022-09-05T05:35:05.502Z,1.4
2022-09-05T05:36:15.255Z,1.3
2022-09-05T05:37:24.917Z,0.8
2022-09-05T05:38:32.587Z,1
2022-09-05T05:39:42.275Z,0.5
2022-09-05T05:40:51.919Z,0.5
2022-09-05T05:42:05.278Z,0.6
2022-09-05T05:43:12.277Z,0.6
2022-09-05T05:44:20.983Z,0.8
2022-09-05T05:45:30.679Z,0.6
2022-09-05T05:46:38.391Z,0.6
2022-09-05T05:47:46.082Z,0.8
2022-09-05T05:48:56.851Z,1
2022-09-05T05:50:05.347Z,0.8
2022-09-05T05:51:16.073Z,0.7
2022-09-05T05:52:24.730Z,0.7
2022-09-05T05:53:43.258Z,0.9
2022-09-05T05:54:44.090Z,0.7
2022-09-05T05:55:53.768Z,0.8
2022-09-05T05:57:10.162Z,0.6
2022-09-05T05:58:13.040Z,0.6
2022-09-05T05:59:24.872Z,0.8
2022-09-05T06:00:33.399Z,0.8
2022-09-05T06:01:44.156Z,0.7
2022-09-05T06:03:09.748Z,0.6
2022-09-05T06:04:04.399Z,0.6
2022-09-05T06:05:12.082Z,0.5
2022-09-05T06:06:21.749Z,0.4
2022-09-05T06:07:30.453Z,0.4
2022-09-05T06:10:02.405Z,0.6
2022-09-05T06:11:02.355Z,0.7
2022-09-05T06:12:35.998Z,0.5
2022-09-05T06:14:53.446Z,0.6
2022-09-05T06:14:53.477Z,0.7
2022-09-05T06:14:53.505Z,0.6
2022-09-05T06:15:44.875Z,0.7
2022-09-05T06:16:53.588Z,0.6
2022-09-05T06:18:02.245Z,0.5
2022-09-05T06:19:11.917Z,0.8
2022-09-05T06:21:28.679Z,0.8
2022-09-05T06:22:05.291Z,0.5
2022-09-05T06:22:43.101Z,0.7
2022-09-05T06:23:52.775Z,0.9
2022-09-05T06:25:07.670Z,1.1
2022-09-05T06:26:12.022Z,1.4
2022-09-05T06:27:20.679Z,1.3
2022-09-05T06:28:30.367Z,1.4
2022-09-05T06:29:41.910Z,1.5
2022-09-05T06:30:50.690Z,0.6
2022-09-05T06:32:01.417Z,0.7
2022-09-05T06:33:10.026Z,0.7
2022-09-05T06:34:32.810Z,0.8
2022-09-05T06:35:30.777Z,0.9
2022-09-05T06:36:40.512Z,1
2022-09-05T06:37:50.148Z,0.7
2022-09-05T06:38:58.816Z,0.6
2022-09-05T06:40:08.615Z,0.8
2022-09-05T06:41:18.170Z,0.7
2022-09-05T06:42:30.590Z,0.7
2022-09-05T06:43:38.525Z,0.4
2022-09-05T06:44:48.168Z,0.6
2022-09-05T06:45:58.456Z,0.4
2022-09-05T06:47:23.088Z,0.7
2022-09-05T06:48:23.883Z,0.6
2022-09-05T06:49:35.993Z,0.5
2022-09-05T06:50:48.198Z,0.6
2022-09-05T06:51:49.779Z,0.5
2022-09-05T06:53:03.462Z,0.4
2022-09-05T06:54:10.056Z,0.6
2022-09-05T06:55:17.731Z,0.5
2022-09-05T06:56:27.376Z,0.8
2022-09-05T06:57:36.050Z,0.6
2022-09-05T06:58:45.693Z,0.6
2022-09-05T06:59:55.393Z,0.5
2022-09-05T07:01:03.147Z,0.5
2022-09-05T07:02:13.764Z,0.4
2022-09-05T07:03:22.858Z,0.5
2022-09-05T07:04:33.425Z,0.6
2022-09-05T07:05:44.455Z,0.5
2022-09-05T07:07:01.380Z,0.5
2022-09-05T07:08:15.737Z,0.4
2022-09-05T07:09:15.649Z,0.5
2022-09-05T07:10:38.281Z,0.5
2022-09-05T07:11:35.961Z,0.6
2022-09-05T07:12:45.662Z,0.8
2022-09-05T07:13:55.338Z,0.8
2022-09-05T07:15:08.569Z,0.7
2022-09-05T07:16:13.721Z,0.6
2022-09-05T07:17:23.320Z,0.5
2022-09-05T07:18:32.985Z,0.5
2022-09-05T07:19:42.651Z,0.4
2022-09-05T07:21:12.281Z,0.3
2022-09-05T07:22:03.038Z,0.4
2022-09-05T07:23:16.942Z,0.4
2022-09-05T07:24:32.663Z,0.4
2022-09-05T07:25:35.816Z,0.3
2022-09-05T07:26:51.339Z,0.6
2022-09-05T07:28:20.953Z,0.3
2022-09-05T07:29:05.020Z,0.6
2022-09-05T07:30:14.726Z,0.3
2022-09-05T07:31:27.352Z,0.2
2022-09-05T07:32:33.020Z,0.2
2022-09-05T07:33:42.718Z,0.4
2022-09-05T07:34:51.401Z,0.3
2022-09-05T07:36:00.098Z,0.3
2022-09-05T07:37:14.380Z,0.4
2022-09-05T07:38:19.397Z,0.4
2022-09-05T07:39:29.592Z,0.6
2022-09-05T07:40:37.711Z,1
2022-09-05T07:41:46.368Z,1.1
2022-09-05T07:43:08.943Z,0.9
2022-09-05T07:44:04.699Z,0.8
2022-09-05T07:45:14.366Z,0.8
2022-09-05T07:46:24.038Z,0.5
2022-09-05T07:47:31.693Z,0.5
2022-09-05T07:48:41.363Z,0.9
2022-09-05T07:49:57.985Z,0.3
2022-09-05T07:52:51.163Z,0.5
2022-09-05T07:55:11.040Z,0.5
2022-09-05T07:56:48.432Z,0.5
2022-09-05T07:56:58.314Z,0.2
2022-09-05T07:56:58.324Z,0.2
2022-09-05T07:57:20.535Z,0.3
2022-09-05T07:58:05.619Z,1.1
2022-09-05T07:59:14.270Z,0.3
2022-09-05T08:00:26.369Z,0.3
2022-09-05T08:01:37.491Z,0.5
2022-09-05T08:02:46.515Z,0.3
2022-09-05T08:03:56.007Z,0.4
2022-09-05T08:05:03.741Z,0.3
2022-09-05T08:06:12.319Z,0.4
2022-09-05T08:07:46.307Z,0.4
2022-09-05T08:08:31.598Z,0.5
2022-09-05T08:10:05.761Z,0.7
2022-09-05T08:11:22.960Z,0.9
2022-09-05T08:12:09.863Z,0.6
2022-09-05T08:13:22.427Z,0.8
2022-09-05T08:14:40.816Z,1
2022-09-05T08:16:00.797Z,0.7
2022-09-05T08:16:44.329Z,0.4
2022-09-05T08:17:53.969Z,0.4
2022-09-05T08:19:03.656Z,0.4
2022-09-05T08:20:13.297Z,0.4
2022-09-05T08:21:26.637Z,0.4
2022-09-05T08:22:33.627Z,0.5
2022-09-05T08:23:42.289Z,0.6
2022-09-05T08:24:51.998Z,0.5
2022-09-05T08:26:01.658Z,0.3
2022-09-05T08:27:16.001Z,0.5
2022-09-05T08:28:21.009Z,0.4
2022-09-05T08:29:30.653Z,0.4
2022-09-05T08:30:39.443Z,0.3
2022-09-05T08:31:49.173Z,1.1
2022-09-05T08:33:03.418Z,1.1
2022-09-05T08:34:09.447Z,1.2
2022-09-05T08:35:18.095Z,1.1
2022-09-05T08:36:25.783Z,1.2
2022-09-05T08:37:35.450Z,0.8
2022-09-05T08:38:45.133Z,0.3
2022-09-05T08:40:05.432Z,0.5
2022-09-05T08:41:05.474Z,0.5
2022-09-05T08:42:14.194Z,0.8
2022-09-05T08:44:02.757Z,0.7
2022-09-05T08:46:38.905Z,0.5
2022-09-05T08:46:39.009Z,0.9
2022-09-05T08:46:56.180Z,0.6
2022-09-05T08:48:05.614Z,0.5
2022-09-05T08:49:18.059Z,0.6
2022-09-05T08:50:26.667Z,0.4
2022-09-05T08:51:35.502Z,0.3
2022-09-05T08:52:45.159Z,0.2
2022-09-05T08:53:54.975Z,0.4
2022-09-05T08:55:07.354Z,1.3
2022-09-05T08:56:16.991Z,0.9
2022-09-05T08:57:23.921Z,0.6
2022-09-05T08:58:31.607Z,1.1
2022-09-05T08:59:45.770Z,1.3
2022-09-05T09:00:55.649Z,0.7
2022-09-05T09:02:13.838Z,0.5
2022-09-05T09:03:13.827Z,0.4
2022-09-05T09:04:41.694Z,0.3
2022-09-05T09:05:54.642Z,0.1
2022-09-05T09:06:43.847Z,0.3
2022-09-05T09:07:53.477Z,0.2
2022-09-05T09:09:05.691Z,0.3
2022-09-05T09:10:12.821Z,0.1
2022-09-05T09:11:22.484Z,0.2
2022-09-05T09:12:32.153Z,0.2
2022-09-05T09:13:40.823Z,0.3
2022-09-05T09:14:50.491Z,0.3
2022-09-05T09:16:00.255Z,0.3
2022-09-05T09:17:08.862Z,0.3
2022-09-05T09:18:18.532Z,0.3
2022-09-05T09:19:29.230Z,0.4
2022-09-05T09:20:37.849Z,0.2
2022-09-05T09:21:47.525Z,0.2
2022-09-05T09:22:56.195Z,0.4
2022-09-05T09:24:05.868Z,0.4
2022-09-05T09:25:16.831Z,0.2
2022-09-05T09:26:28.285Z,0.2
2022-09-05T09:27:44.574Z,0.1
2022-09-05T09:28:51.278Z,0.2
2022-09-05T09:29:57.201Z,0.3
2022-09-05T09:31:06.968Z,0.2
2022-09-05T09:32:14.562Z,0.1
2022-09-05T09:33:27.232Z,0.3
2022-09-05T09:34:36.811Z,0.2
2022-09-05T09:35:43.564Z,0.4
2022-09-05T09:36:53.280Z,0.2
2022-09-05T09:38:02.920Z,0.3
2022-09-05T09:39:21.584Z,0.2
2022-09-05T09:40:23.375Z,0.2
2022-09-05T09:41:31.978Z,0.2
2022-09-05T09:42:41.639Z,0.3
2022-09-05T09:43:52.688Z,0.4
2022-09-05T09:45:00.931Z,0.2
2022-09-05T09:46:11.670Z,0.2
2022-09-05T09:47:19.288Z,0.2
2022-09-05T09:48:29.953Z,0.2
2022-09-05T09:49:37.608Z,0.3
2022-09-05T09:50:53.539Z,0.2
2022-09-05T09:51:57.935Z,0.3
2022-09-05T09:53:06.600Z,0.3
2022-09-05T09:54:16.281Z,0.1
2022-09-05T09:55:27.140Z,0.4
2022-09-05T09:56:34.588Z,0.4
2022-09-05T09:57:44.386Z,0.2
2022-09-05T09:58:52.058Z,0.3
2022-09-05T10:00:01.708Z,0.3
2022-09-05T10:01:22.896Z,0.2
2022-09-05T10:02:45.359Z,0.2
2022-09-05T10:05:08.333Z,0.3
2022-09-05T10:06:54.156Z,0.2
2022-09-05T10:10:37.266Z,0.3
2022-09-05T10:10:37.288Z,0.2
2022-09-05T10:10:37.368Z,0.3
2022-09-05T10:10:41.415Z,0.2
2022-09-05T10:10:56.462Z,0.2
2022-09-05T10:11:54.019Z,0.2
2022-09-05T10:13:02.544Z,0.3
2022-09-05T10:14:07.549Z,0.3
2022-09-05T10:15:22.202Z,0.2
2022-09-05T10:16:28.886Z,0.2
2022-09-05T10:17:37.524Z,0.2
2022-09-05T10:18:46.180Z,0.1
2022-09-05T10:20:11.834Z,0.2
2022-09-05T10:21:15.930Z,0.2
2022-09-05T10:23:27.826Z,0.2
2022-09-05T10:24:36.476Z,0.1
2022-09-05T10:25:46.183Z,0.4
2022-09-05T10:26:56.591Z,0.1
2022-09-05T10:28:04.590Z,0.1
2022-09-05T10:29:37.317Z,0.2
2022-09-05T10:30:25.251Z,0.2
2022-09-05T10:32:31.379Z,0.1
2022-09-05T10:34:39.516Z,0.1
2022-09-05T10:35:12.544Z,0.2
2022-09-05T10:35:20.734Z,0.1
2022-09-05T10:36:18.130Z,0.1
2022-09-05T10:37:26.748Z,0.2
2022-09-05T10:38:36.508Z,0.2
2022-09-05T10:39:45.202Z,0.2
2022-09-05T10:41:14.715Z,0.2
2022-09-05T10:42:05.447Z,0.2
2022-09-05T10:43:13.145Z,0.3
2022-09-05T10:44:23.956Z,0.2
2022-09-05T10:45:38.383Z,0.2
2022-09-05T10:46:51.030Z,0.2
2022-09-05T10:47:54.992Z,0.2
2022-09-05T10:49:02.648Z,0.1
2022-09-05T10:50:12.401Z,0.2
2022-09-05T10:51:27.684Z,0.5
2022-09-05T10:52:30.706Z,0.1
2022-09-05T10:53:40.336Z,0.2
2022-09-05T10:54:48.997Z,0.2
2022-09-05T10:55:58.738Z,0.1
2022-09-05T10:57:08.403Z,0.1
2022-09-05T10:58:17.072Z,0.2
2022-09-05T10:59:56.958Z,0.2
2022-09-05T11:02:25.226Z,0.1
2022-09-05T11:02:25.645Z,0.2
2022-09-05T11:02:59.813Z,0.3
2022-09-05T11:04:07.554Z,0.3
2022-09-05T11:05:16.204Z,0.1
2022-09-05T11:06:25.784Z,0.4
2022-09-05T11:07:33.468Z,0.2
2022-09-05T11:08:43.160Z,0.2
2022-09-05T11:09:56.085Z,0.2
2022-09-05T11:11:02.499Z,0.1
2022-09-05T11:12:12.147Z,0.1
2022-09-05T11:13:21.883Z,0.2
2022-09-05T11:14:31.529Z,0.3
2022-09-05T11:15:44.072Z,0.1
2022-09-05T11:16:51.896Z,0.2
2022-09-05T11:18:01.526Z,0.2
2022-09-05T11:19:10.225Z,0.3
2022-09-05T11:20:20.301Z,0.2
2022-09-05T11:21:30.513Z,0.3
2022-09-05T11:22:39.192Z,0.2
2022-09-05T11:23:56.818Z,0.2
2022-09-05T11:24:58.543Z,0.2
2022-09-05T11:26:07.251Z,0.2
2022-09-05T11:27:24.093Z,0.2
2022-09-05T11:28:24.566Z,0.2
2022-09-05T11:29:34.232Z,0.1
2022-09-05T11:30:43.988Z,0.2
2022-09-05T11:33:40.400Z,0.3
2022-09-05T11:35:51.419Z,0.2
2022-09-05T11:36:25.956Z,0.3
2022-09-05T11:39:49.641Z,0.3
2022-09-05T11:40:00.812Z,0.2
2022-09-05T11:40:01.026Z,0
2022-09-05T11:40:01.664Z,0.1
2022-09-05T11:40:26.967Z,0.2
2022-09-05T11:41:19.443Z,0.3
2022-09-05T11:42:29.494Z,0.2
2022-09-05T11:43:39.168Z,0.3
2022-09-05T11:44:48.854Z,0.4
2022-09-05T11:45:58.636Z,0
2022-09-05T11:47:27.143Z,0
2022-09-05T11:48:18.898Z,0.2
2022-09-05T11:49:28.603Z,0.1
2022-09-05T11:50:37.267Z,0
2022-09-05T11:51:45.980Z,0.2
2022-09-05T11:52:54.668Z,0.1
2022-09-05T11:54:03.357Z,0.1
2022-09-05T11:55:20.775Z,0.1
2022-09-05T11:56:26.694Z,0.1
2022-09-05T11:57:36.713Z,0.2
2022-09-05T11:58:53.588Z,0.2
2022-09-05T12:00:08.236Z,0.2
2022-09-05T12:01:36.805Z,0.1
2022-09-05T12:02:24.753Z,0.2
2022-09-05T12:03:56.501Z,0
2022-09-05T12:04:44.923Z,0.3
2022-09-05T12:05:58.547Z,0.1
2022-09-05T12:07:15.509Z,0.1
2022-09-05T12:08:16.980Z,0.2
2022-09-05T12:09:26.637Z,0
2022-09-05T12:10:38.584Z,0
2022-09-05T12:11:47.008Z,0.1
2022-09-05T12:12:55.665Z,0.2
2022-09-05T12:14:13.937Z,0.2
2022-09-05T12:15:15.058Z,0.1
2022-09-05T12:16:26.672Z,0.1
2022-09-05T12:17:35.849Z,0.3
2022-09-05T12:18:44.108Z,0
2022-09-05T12:19:53.862Z,0
2022-09-05T12:21:03.581Z,0.2
2022-09-05T12:22:16.573Z,0.1
2022-09-05T12:25:15.450Z,0.2
2022-09-05T12:27:35.605Z,0.1
2022-09-05T12:27:37.744Z,0.2
2022-09-05T12:28:31.427Z,0.1
2022-09-05T12:29:28.492Z,0.2
2022-09-05T12:30:42.476Z,0.1
2022-09-05T12:32:00.244Z,0.1
2022-09-05T12:33:47.900Z,0.2
2022-09-05T12:35:55.705Z,0.1
2022-09-05T12:36:03.449Z,0.2
2022-09-05T12:40:16.673Z,0.1
2022-09-05T12:40:35.738Z,0.2
2022-09-05T12:40:45.200Z,0.1
2022-09-05T12:40:48.246Z,0.1
2022-09-05T12:41:40.036Z,0.1
2022-09-05T12:41:48.131Z,0.1
2022-09-05T12:42:22.089Z,0.1
2022-09-05T12:43:53.054Z,0
2022-09-05T12:44:37.675Z,0.1
2022-09-05T12:45:46.666Z,0.1
2022-09-05T12:46:54.326Z,0
2022-09-05T12:48:03.978Z,0.1
2022-09-05T12:49:14.626Z,0
2022-09-05T12:50:22.326Z,0
2022-09-05T12:51:44.959Z,0.2
2022-09-05T12:52:41.783Z,0.1
2022-09-05T12:53:50.506Z,0.2
2022-09-05T12:55:00.185Z,0.2
2022-09-05T12:56:38.701Z,0.1
2022-09-05T12:59:38.862Z,0.2
2022-09-05T13:01:48.242Z,0.1
2022-09-05T13:02:59.595Z,0.1
2022-09-05T13:03:00.570Z,0.1
2022-09-05T13:03:10.095Z,0.1
2022-09-05T13:03:27.395Z,0.1
2022-09-05T13:04:30.924Z,0
2022-09-05T13:05:34.267Z,0.2
2022-09-05T13:06:43.104Z,0.1
2022-09-05T13:07:52.566Z,0.1
2022-09-05T13:09:02.258Z,0.2
2022-09-05T13:11:32.224Z,0.2
2022-09-05T13:14:33.497Z,0.2
2022-09-05T13:14:50.992Z,0.1
2022-09-05T13:14:51.040Z,0
2022-09-05T13:15:11.319Z,0
2022-09-05T13:16:05.231Z,0.1
2022-09-05T13:17:13.863Z,0
2022-09-05T13:18:22.525Z,0.1
2022-09-05T13:19:32.188Z,0.2
2022-09-05T13:20:41.857Z,0.1
2022-09-05T13:21:51.596Z,0
2022-09-05T13:23:01.295Z,0.1
2022-09-05T13:24:09.976Z,0.1
2022-09-05T13:25:19.619Z,0.2
2022-09-05T13:26:29.318Z,0.1
2022-09-05T13:27:38.266Z,0.2
2022-09-05T13:28:49.033Z,0.1
2022-09-05T13:30:09.897Z,0.2
2022-09-05T13:33:01.917Z,0.2
2022-09-05T13:36:08.681Z,0.2
2022-09-05T13:38:08.515Z,0.1
2022-09-05T13:38:08.706Z,0.1
2022-09-05T13:38:08.718Z,0.2
2022-09-05T13:38:09.387Z,0.2
2022-09-05T13:39:23.102Z,0
2022-09-05T13:40:30.818Z,0.1
2022-09-05T13:41:40.313Z,0.1
2022-09-05T13:42:49.986Z,0.1
2022-09-05T13:44:00.007Z,0.2
2022-09-05T13:45:10.333Z,0.1
2022-09-05T13:46:18.052Z,0.2
2022-09-05T13:47:29.214Z,0.1
2022-09-05T13:49:46.985Z,0.1
2022-09-05T13:50:56.792Z,0.3
2022-09-05T13:52:05.616Z,0.2
2022-09-05T13:53:15.629Z,0.3
2022-09-05T13:54:24.836Z,0.1
2022-09-05T13:55:32.473Z,0.1
2022-09-05T13:56:41.210Z,0
2022-09-05T13:57:50.893Z,0.1
2022-09-05T13:59:00.546Z,0.1
2022-09-05T14:00:15.156Z,0.3
2022-09-05T14:01:19.992Z,0.1
2022-09-05T14:02:29.967Z,0.1
2022-09-05T14:03:40.287Z,0.1
2022-09-05T14:05:08.251Z,0.1
2022-09-05T14:06:00.569Z,0.1
2022-09-05T14:08:21.890Z,0.2
2022-09-05T14:09:39.504Z,0.2
2022-09-05T14:10:40.226Z,0.2
2022-09-05T14:11:47.925Z,0.2
2022-09-05T14:13:01.121Z,0.1
2022-09-05T14:14:09.270Z,0.1
2022-09-05T14:15:16.012Z,0.1
2022-09-05T14:16:25.689Z,0.1
2022-09-05T14:17:51.013Z,0.3
2022-09-05T14:18:47.665Z,0
2022-09-05T14:19:55.691Z,0.1
2022-09-05T14:21:08.798Z,0.1
2022-09-05T14:22:20.187Z,0.1
2022-09-05T14:23:25.674Z,0.1
2022-09-05T14:24:35.248Z,0.2
2022-09-05T14:25:42.978Z,0.1
2022-09-05T14:26:51.634Z,0.1
2022-09-05T14:28:01.298Z,0.1
2022-09-05T14:29:09.961Z,0
2022-09-05T14:31:09.683Z,0.2
2022-09-05T14:32:39.903Z,0
2022-09-05T14:35:16.386Z,0.1
2022-09-05T14:37:38.009Z,0.1
2022-09-05T14:37:38.422Z,0
2022-09-05T14:37:38.427Z,0.2
2022-09-05T14:37:57.888Z,0.1
2022-09-05T14:38:33.535Z,0.1
2022-09-05T14:39:42.064Z,0
2022-09-05T14:40:50.729Z,0.2
2022-09-05T14:42:07.803Z,0.1
2022-09-05T14:43:11.031Z,0.2
2022-09-05T14:44:19.688Z,0.1
2022-09-05T14:45:30.110Z,0.1
2022-09-05T14:46:39.152Z,0.2
2022-09-05T14:47:48.739Z,0.1
2022-09-05T14:48:58.406Z,0.2
2022-09-05T14:50:07.068Z,0.1
2022-09-05T14:51:24.373Z,0.2
2022-09-05T14:52:27.475Z,0.2
2022-09-05T14:56:06.233Z,0.2
2022-09-05T14:57:47.146Z,0.1
2022-09-05T15:00:38.653Z,0.3
2022-09-05T15:02:40.172Z,0
2022-09-05T15:02:40.406Z,0.3
2022-09-05T15:02:46.713Z,0.1
2022-09-05T15:03:04.754Z,0.1
2022-09-05T15:05:23.797Z,0.3
2022-09-05T15:06:33.524Z,0.1
2022-09-05T15:07:43.091Z,0.1
2022-09-05T15:10:09.156Z,0.3
2022-09-05T15:11:24.907Z,0.1
2022-09-05T15:11:32.322Z,0.1
2022-09-05T15:12:38.477Z,0.1
2022-09-05T15:13:34.398Z,0.2
2022-09-05T15:14:44.084Z,0.2
2022-09-05T15:15:59.116Z,0.2
2022-09-05T15:17:04.423Z,0.1
2022-09-05T15:18:13.165Z,0.3
2022-09-05T15:19:20.853Z,0.2
2022-09-05T15:20:30.561Z,0.1
2022-09-05T15:21:40.306Z,0.4
2022-09-05T15:22:49.716Z,0.3
2022-09-05T15:23:58.675Z,0.1
2022-09-05T15:25:12.186Z,0.3
2022-09-05T15:26:25.896Z,0
2022-09-05T15:27:28.602Z,0.2
2022-09-05T15:28:37.260Z,0.3
2022-09-05T15:29:45.984Z,0.1
2022-09-05T15:30:53.692Z,0.2
2022-09-05T15:32:09.731Z,0.1
2022-09-05T15:33:13.944Z,0.1
2022-09-05T15:34:22.605Z,0.1
2022-09-05T15:35:32.291Z,0.2
2022-09-05T15:36:41.974Z,0.2
2022-09-05T15:37:50.648Z,0.2
2022-09-05T15:39:05.298Z,0.1
2022-09-05T15:40:21.765Z,0.2
2022-09-05T15:41:20.679Z,0.2
2022-09-05T15:42:29.341Z,0.2
2022-09-05T15:43:38.025Z,0.1
2022-09-05T15:45:06.616Z,0.1
2022-09-05T15:45:58.403Z,0.1
2022-09-05T15:47:07.165Z,0.3
2022-09-05T15:48:16.872Z,0.2
2022-09-05T15:49:26.519Z,0.3
2022-09-05T15:50:35.190Z,0.2
2022-09-05T15:51:44.885Z,0.2
2022-09-05T15:52:55.487Z,0.3
2022-09-05T15:54:05.400Z,0.1
2022-09-05T15:55:15.090Z,0.2
2022-09-05T15:56:25.311Z,0.1
2022-09-05T15:57:34.528Z,0.2
2022-09-05T15:58:52.966Z,0.1
2022-09-05T15:59:54.969Z,0.1
2022-09-05T16:01:05.708Z,0.6
2022-09-05T16:02:13.440Z,0.1
2022-09-05T16:04:36.474Z,0.2
2022-09-05T16:05:56.121Z,0.2
2022-09-05T16:10:32.070Z,0.1
2022-09-05T16:10:32.136Z,0.1
2022-09-05T16:10:32.695Z,0.1
2022-09-05T16:10:44.004Z,0.1
2022-09-05T16:10:55.317Z,0.1